sensor_id;sensor_type;location;lat;lon;timestamp;temperature;humidity
13464;DHT22;6804;48.774;9.174;2024-03-08T00:00:06;6.20;99.90
13464;DHT22;6804;48.774;9.174;2024-03-08T00:02:38;6.30;99.90
13464;DHT22;6804;48.774;9.174;2024-03-08T00:05:08;6.40;99.90
13464;DHT22;6804;48.774;9.174;2024-03-08T00:07:36;6.50;99.90
13464;DHT22;6804;48.774;9.174;2024-03-08T00:10:04;6.60;99.90
13464;DHT22;6804;48.774;9.174;2024-03-08T00:12:38;6.60;99.90
13464;DHT22;6804;48.774;9.174;2024-03-08T00:15:13;6.50;99.90
13464;DHT22;6804;48.774;9.174;2024-03-08T00:17:44;6.40;99.90
13464;DHT22;6804;48.774;9.174;2024-03-08T00:20:13;6.40;99.90
13464;DHT22;6804;48.774;9.174;2024-03-08T00:22:42;6.40;99.90
13464;DHT22;6804;48.774;9.174;2024-03-08T00:25:13;6.50;99.90
13464;DHT22;6804;48.774;9.174;2024-03-08T00:27:44;6.60;99.90
13464;DHT22;6804;48.774;9.174;2024-03-08T00:30:19;6.70;99.90
13464;DHT22;6804;48.774;9.174;2024-03-08T00:32:49;6.70;99.90
13464;DHT22;6804;48.774;9.174;2024-03-08T00:35:18;6.70;99.90
13464;DHT22;6804;48.774;9.174;2024-03-08T00:37:49;6.80;99.90
13464;DHT22;6804;48.774;9.174;2024-03-08T00:40:23;6.80;99.90
13464;DHT22;6804;48.774;9.174;2024-03-08T00:42:52;6.90;99.90
13464;DHT22;6804;48.774;9.174;2024-03-08T00:45:22;6.90;99.90
13464;DHT22;6804;48.774;9.174;2024-03-08T00:47:50;6.90;99.90
13464;DHT22;6804;48.774;9.174;2024-03-08T00:50:20;6.90;99.90
13464;DHT22;6804;48.774;9.174;2024-03-08T00:53:10;6.90;99.90
13464;DHT22;6804;48.774;9.174;2024-03-08T00:55:40;6.90;99.90
13464;DHT22;6804;48.774;9.174;2024-03-08T00:58:15;6.90;99.90
13464;DHT22;6804;48.774;9.174;2024-03-08T01:00:46;6.90;99.90
13464;DHT22;6804;48.774;9.174;2024-03-08T01:03:14;6.80;99.90
13464;DHT22;6804;48.774;9.174;2024-03-08T01:05:43;6.80;99.90
13464;DHT22;6804;48.774;9.174;2024-03-08T01:08:11;6.60;99.90
13464;DHT22;6804;48.774;9.174;2024-03-08T01:10:50;6.50;99.90
13464;DHT22;6804;48.774;9.174;2024-03-08T01:13:27;6.50;99.90
13464;DHT22;6804;48.774;9.174;2024-03-08T01:15:57;6.50;99.90
13464;DHT22;6804;48.774;9.174;2024-03-08T01:18:24;6.50;99.90
13464;DHT22;6804;48.774;9.174;2024-03-08T01:20:52;6.50;99.90
13464;DHT22;6804;48.774;9.174;2024-03-08T01:23:20;6.60;99.90
13464;DHT22;6804;48.774;9.174;2024-03-08T01:25:48;6.60;99.90
13464;DHT22;6804;48.774;9.174;2024-03-08T01:28:41;6.60;99.90
13464;DHT22;6804;48.774;9.174;2024-03-08T01:31:13;6.70;99.90
13464;DHT22;6804;48.774;9.174;2024-03-08T01:33:42;6.60;99.90
13464;DHT22;6804;48.774;9.174;2024-03-08T01:36:13;6.60;99.90
13464;DHT22;6804;48.774;9.174;2024-03-08T01:38:46;6.70;99.90
13464;DHT22;6804;48.774;9.174;2024-03-08T01:41:13;6.60;99.90
13464;DHT22;6804;48.774;9.174;2024-03-08T01:43:45;6.60;99.90
13464;DHT22;6804;48.774;9.174;2024-03-08T01:46:19;6.60;99.90
13464;DHT22;6804;48.774;9.174;2024-03-08T01:48:49;6.60;99.90
13464;DHT22;6804;48.774;9.174;2024-03-08T01:51:17;6.60;99.90
13464;DHT22;6804;48.774;9.174;2024-03-08T01:53:48;6.50;99.90
13464;DHT22;6804;48.774;9.174;2024-03-08T01:56:18;6.10;99.90
13464;DHT22;6804;48.774;9.174;2024-03-08T01:58:48;6.00;99.90
13464;DHT22;6804;48.774;9.174;2024-03-08T02:01:17;6.00;99.90
13464;DHT22;6804;48.774;9.174;2024-03-08T02:03:45;6.10;99.90
13464;DHT22;6804;48.774;9.174;2024-03-08T02:06:18;6.10;99.90
13464;DHT22;6804;48.774;9.174;2024-03-08T02:08:47;6.10;99.90
13464;DHT22;6804;48.774;9.174;2024-03-08T02:11:18;6.00;99.90
13464;DHT22;6804;48.774;9.174;2024-03-08T02:13:47;5.80;99.90
13464;DHT22;6804;48.774;9.174;2024-03-08T02:19:22;5.50;99.90
13464;DHT22;6804;48.774;9.174;2024-03-08T02:21:51;5.40;99.90
13464;DHT22;6804;48.774;9.174;2024-03-08T02:24:20;5.40;99.90
13464;DHT22;6804;48.774;9.174;2024-03-08T02:26:49;5.30;99.90
13464;DHT22;6804;48.774;9.174;2024-03-08T02:29:19;5.40;99.90
13464;DHT22;6804;48.774;9.174;2024-03-08T02:31:51;5.40;99.90
13464;DHT22;6804;48.774;9.174;2024-03-08T02:34:18;5.60;99.90
13464;DHT22;6804;48.774;9.174;2024-03-08T02:36:46;5.50;99.90
13464;DHT22;6804;48.774;9.174;2024-03-08T02:39:18;5.60;99.90
13464;DHT22;6804;48.774;9.174;2024-03-08T02:41:48;5.70;99.90
13464;DHT22;6804;48.774;9.174;2024-03-08T02:44:17;5.60;99.90
13464;DHT22;6804;48.774;9.174;2024-03-08T02:46:47;5.70;99.90
13464;DHT22;6804;48.774;9.174;2024-03-08T02:49:16;5.70;99.90
13464;DHT22;6804;48.774;9.174;2024-03-08T02:51:47;5.70;99.90
13464;DHT22;6804;48.774;9.174;2024-03-08T02:54:18;5.70;99.90
13464;DHT22;6804;48.774;9.174;2024-03-08T02:56:49;5.70;99.90
13464;DHT22;6804;48.774;9.174;2024-03-08T02:59:21;5.80;99.90
13464;DHT22;6804;48.774;9.174;2024-03-08T03:01:49;5.80;99.90
13464;DHT22;6804;48.774;9.174;2024-03-08T03:04:18;5.90;99.90
13464;DHT22;6804;48.774;9.174;2024-03-08T03:07:03;5.90;99.90
13464;DHT22;6804;48.774;9.174;2024-03-08T03:09:33;5.80;99.90
13464;DHT22;6804;48.774;9.174;2024-03-08T03:12:00;5.60;99.90
13464;DHT22;6804;48.774;9.174;2024-03-08T03:14:28;5.50;99.90
13464;DHT22;6804;48.774;9.174;2024-03-08T03:17:00;5.40;99.90
13464;DHT22;6804;48.774;9.174;2024-03-08T03:19:26;5.30;99.90
13464;DHT22;6804;48.774;9.174;2024-03-08T03:21:56;5.20;99.90
13464;DHT22;6804;48.774;9.174;2024-03-08T03:24:27;5.20;99.90
13464;DHT22;6804;48.774;9.174;2024-03-08T03:26:59;5.10;99.90
13464;DHT22;6804;48.774;9.174;2024-03-08T03:29:31;5.00;99.90
13464;DHT22;6804;48.774;9.174;2024-03-08T03:31:59;5.00;99.90
13464;DHT22;6804;48.774;9.174;2024-03-08T03:34:28;4.90;99.90
13464;DHT22;6804;48.774;9.174;2024-03-08T03:36:59;4.80;99.90
13464;DHT22;6804;48.774;9.174;2024-03-08T03:39:26;4.80;99.90
13464;DHT22;6804;48.774;9.174;2024-03-08T03:42:01;4.70;99.90
13464;DHT22;6804;48.774;9.174;2024-03-08T03:44:29;4.60;99.90
13464;DHT22;6804;48.774;9.174;2024-03-08T03:46:58;4.60;99.90
13464;DHT22;6804;48.774;9.174;2024-03-08T03:49:26;4.50;99.90
13464;DHT22;6804;48.774;9.174;2024-03-08T03:51:54;4.40;99.90
13464;DHT22;6804;48.774;9.174;2024-03-08T03:54:22;4.40;99.90
13464;DHT22;6804;48.774;9.174;2024-03-08T03:56:49;4.40;99.90
13464;DHT22;6804;48.774;9.174;2024-03-08T03:59:20;4.30;99.90
13464;DHT22;6804;48.774;9.174;2024-03-08T04:01:50;4.30;99.90
13464;DHT22;6804;48.774;9.174;2024-03-08T04:04:20;4.20;99.90
13464;DHT22;6804;48.774;9.174;2024-03-08T04:06:50;4.20;99.90
13464;DHT22;6804;48.774;9.174;2024-03-08T04:09:23;4.20;99.90
13464;DHT22;6804;48.774;9.174;2024-03-08T04:11:50;4.30;99.90
13464;DHT22;6804;48.774;9.174;2024-03-08T04:14:20;4.20;99.90
13464;DHT22;6804;48.774;9.174;2024-03-08T04:16:48;4.20;99.90
13464;DHT22;6804;48.774;9.174;2024-03-08T04:19:16;4.20;99.90
13464;DHT22;6804;48.774;9.174;2024-03-08T04:21:46;4.20;99.90
13464;DHT22;6804;48.774;9.174;2024-03-08T04:24:22;4.10;99.90
13464;DHT22;6804;48.774;9.174;2024-03-08T04:26:50;4.20;99.90
13464;DHT22;6804;48.774;9.174;2024-03-08T04:29:22;4.20;99.90
13464;DHT22;6804;48.774;9.174;2024-03-08T04:31:49;4.10;99.90
13464;DHT22;6804;48.774;9.174;2024-03-08T04:34:23;4.00;99.90
13464;DHT22;6804;48.774;9.174;2024-03-08T04:36:51;3.90;99.90
13464;DHT22;6804;48.774;9.174;2024-03-08T04:39:21;4.00;99.90
13464;DHT22;6804;48.774;9.174;2024-03-08T04:41:51;4.00;99.90
13464;DHT22;6804;48.774;9.174;2024-03-08T04:44:25;4.10;99.90
13464;DHT22;6804;48.774;9.174;2024-03-08T04:46:52;4.10;99.90
13464;DHT22;6804;48.774;9.174;2024-03-08T04:49:19;4.20;99.90
13464;DHT22;6804;48.774;9.174;2024-03-08T04:51:51;4.20;99.90
13464;DHT22;6804;48.774;9.174;2024-03-08T04:54:18;4.20;99.90
13464;DHT22;6804;48.774;9.174;2024-03-08T04:56:46;4.20;99.90
13464;DHT22;6804;48.774;9.174;2024-03-08T04:59:15;4.20;99.90
13464;DHT22;6804;48.774;9.174;2024-03-08T05:01:44;4.10;99.90
13464;DHT22;6804;48.774;9.174;2024-03-08T05:04:12;4.00;99.90
13464;DHT22;6804;48.774;9.174;2024-03-08T05:06:45;4.00;99.90
13464;DHT22;6804;48.774;9.174;2024-03-08T05:09:12;3.90;99.90
13464;DHT22;6804;48.774;9.174;2024-03-08T05:11:44;4.00;99.90
13464;DHT22;6804;48.774;9.174;2024-03-08T05:14:12;3.90;99.90
13464;DHT22;6804;48.774;9.174;2024-03-08T05:16:43;3.90;99.90
13464;DHT22;6804;48.774;9.174;2024-03-08T05:19:14;3.90;99.90
13464;DHT22;6804;48.774;9.174;2024-03-08T05:21:43;4.00;99.90
13464;DHT22;6804;48.774;9.174;2024-03-08T05:24:11;4.00;99.90
13464;DHT22;6804;48.774;9.174;2024-03-08T05:26:43;4.10;99.90
13464;DHT22;6804;48.774;9.174;2024-03-08T05:29:11;4.10;99.90
13464;DHT22;6804;48.774;9.174;2024-03-08T05:31:48;4.00;99.90
13464;DHT22;6804;48.774;9.174;2024-03-08T05:34:15;4.00;99.90
13464;DHT22;6804;48.774;9.174;2024-03-08T05:36:44;3.90;99.90
13464;DHT22;6804;48.774;9.174;2024-03-08T05:39:15;3.90;99.90
13464;DHT22;6804;48.774;9.174;2024-03-08T05:41:43;4.00;99.90
13464;DHT22;6804;48.774;9.174;2024-03-08T05:44:12;4.10;99.90
13464;DHT22;6804;48.774;9.174;2024-03-08T05:46:42;4.20;99.90
13464;DHT22;6804;48.774;9.174;2024-03-08T05:49:14;4.20;99.90
13464;DHT22;6804;48.774;9.174;2024-03-08T05:51:43;4.30;99.90
13464;DHT22;6804;48.774;9.174;2024-03-08T05:54:13;4.20;99.90
13464;DHT22;6804;48.774;9.174;2024-03-08T05:56:44;4.20;99.90
13464;DHT22;6804;48.774;9.174;2024-03-08T05:59:13;4.20;99.90
13464;DHT22;6804;48.774;9.174;2024-03-08T06:01:41;4.20;99.90
13464;DHT22;6804;48.774;9.174;2024-03-08T06:04:09;4.20;99.90
13464;DHT22;6804;48.774;9.174;2024-03-08T06:06:40;4.20;99.90
13464;DHT22;6804;48.774;9.174;2024-03-08T06:09:08;4.20;99.90
13464;DHT22;6804;48.774;9.174;2024-03-08T06:11:37;4.20;99.90
13464;DHT22;6804;48.774;9.174;2024-03-08T06:14:08;4.20;99.90
13464;DHT22;6804;48.774;9.174;2024-03-08T06:16:36;4.10;99.90
13464;DHT22;6804;48.774;9.174;2024-03-08T06:19:07;4.00;99.90
13464;DHT22;6804;48.774;9.174;2024-03-08T06:21:34;4.00;99.90
13464;DHT22;6804;48.774;9.174;2024-03-08T06:24:04;4.00;99.90
13464;DHT22;6804;48.774;9.174;2024-03-08T06:26:33;4.10;99.90
13464;DHT22;6804;48.774;9.174;2024-03-08T06:29:04;4.30;99.90
13464;DHT22;6804;48.774;9.174;2024-03-08T06:31:33;4.40;99.90
13464;DHT22;6804;48.774;9.174;2024-03-08T06:34:06;4.40;99.90
13464;DHT22;6804;48.774;9.174;2024-03-08T06:36:35;4.30;99.90
13464;DHT22;6804;48.774;9.174;2024-03-08T06:39:05;4.40;99.90
13464;DHT22;6804;48.774;9.174;2024-03-08T06:41:35;4.40;99.90
13464;DHT22;6804;48.774;9.174;2024-03-08T06:44:27;4.40;99.90
13464;DHT22;6804;48.774;9.174;2024-03-08T06:46:56;4.30;99.90
13464;DHT22;6804;48.774;9.174;2024-03-08T06:49:26;4.40;99.90
13464;DHT22;6804;48.774;9.174;2024-03-08T06:52:12;4.40;99.90
13464;DHT22;6804;48.774;9.174;2024-03-08T06:54:45;4.50;99.90
13464;DHT22;6804;48.774;9.174;2024-03-08T06:57:33;4.60;99.90
13464;DHT22;6804;48.774;9.174;2024-03-08T07:00:01;4.50;99.90
13464;DHT22;6804;48.774;9.174;2024-03-08T07:02:30;4.40;99.90
13464;DHT22;6804;48.774;9.174;2024-03-08T07:05:04;4.30;99.90
13464;DHT22;6804;48.774;9.174;2024-03-08T07:07:50;4.30;99.90
13464;DHT22;6804;48.774;9.174;2024-03-08T07:10:25;4.30;99.90
13464;DHT22;6804;48.774;9.174;2024-03-08T07:12:58;4.30;99.90
13464;DHT22;6804;48.774;9.174;2024-03-08T07:15:28;4.30;99.90
13464;DHT22;6804;48.774;9.174;2024-03-08T07:17:56;4.40;99.90
13464;DHT22;6804;48.774;9.174;2024-03-08T07:20:25;4.30;99.90
13464;DHT22;6804;48.774;9.174;2024-03-08T07:22:55;4.30;99.90
13464;DHT22;6804;48.774;9.174;2024-03-08T07:25:27;4.30;99.90
13464;DHT22;6804;48.774;9.174;2024-03-08T07:27:56;4.30;99.90
13464;DHT22;6804;48.774;9.174;2024-03-08T07:30:25;4.40;99.90
13464;DHT22;6804;48.774;9.174;2024-03-08T07:33:11;4.40;99.90
13464;DHT22;6804;48.774;9.174;2024-03-08T07:35:40;4.50;99.90
13464;DHT22;6804;48.774;9.174;2024-03-08T07:38:11;4.60;99.90
13464;DHT22;6804;48.774;9.174;2024-03-08T07:40:44;4.70;99.90
13464;DHT22;6804;48.774;9.174;2024-03-08T07:43:12;4.90;99.90
13464;DHT22;6804;48.774;9.174;2024-03-08T07:45:41;5.00;99.90
13464;DHT22;6804;48.774;9.174;2024-03-08T07:48:08;5.00;99.90
13464;DHT22;6804;48.774;9.174;2024-03-08T07:50:37;5.10;99.90
13464;DHT22;6804;48.774;9.174;2024-03-08T07:53:08;5.10;99.90
13464;DHT22;6804;48.774;9.174;2024-03-08T07:55:41;5.10;99.90
13464;DHT22;6804;48.774;9.174;2024-03-08T07:58:29;5.20;99.90
13464;DHT22;6804;48.774;9.174;2024-03-08T08:00:56;5.30;99.90
13464;DHT22;6804;48.774;9.174;2024-03-08T08:03:24;5.30;99.90
13464;DHT22;6804;48.774;9.174;2024-03-08T08:05:56;5.20;99.90
13464;DHT22;6804;48.774;9.174;2024-03-08T08:08:25;5.20;99.90
13464;DHT22;6804;48.774;9.174;2024-03-08T08:10:55;5.10;99.90
13464;DHT22;6804;48.774;9.174;2024-03-08T08:13:24;5.10;99.90
13464;DHT22;6804;48.774;9.174;2024-03-08T08:15:59;4.80;99.90
13464;DHT22;6804;48.774;9.174;2024-03-08T08:18:27;4.70;99.90
13464;DHT22;6804;48.774;9.174;2024-03-08T08:20:57;4.70;99.90
13464;DHT22;6804;48.774;9.174;2024-03-08T08:23:29;4.70;99.90
13464;DHT22;6804;48.774;9.174;2024-03-08T08:25:58;4.50;99.90
13464;DHT22;6804;48.774;9.174;2024-03-08T08:28:28;4.60;99.90
13464;DHT22;6804;48.774;9.174;2024-03-08T08:30:57;4.80;99.90
13464;DHT22;6804;48.774;9.174;2024-03-08T08:33:27;4.90;99.90
13464;DHT22;6804;48.774;9.174;2024-03-08T08:35:55;4.90;99.90
13464;DHT22;6804;48.774;9.174;2024-03-08T08:38:28;4.90;99.90
13464;DHT22;6804;48.774;9.174;2024-03-08T08:40:58;4.90;99.90
13464;DHT22;6804;48.774;9.174;2024-03-08T08:43:29;4.70;99.90
13464;DHT22;6804;48.774;9.174;2024-03-08T08:45:58;4.50;99.90
13464;DHT22;6804;48.774;9.174;2024-03-08T08:48:29;4.40;99.90
13464;DHT22;6804;48.774;9.174;2024-03-08T08:50:59;4.50;99.90
13464;DHT22;6804;48.774;9.174;2024-03-08T08:53:27;4.60;99.90
13464;DHT22;6804;48.774;9.174;2024-03-08T08:55:55;4.60;99.90
13464;DHT22;6804;48.774;9.174;2024-03-08T08:58:30;4.70;99.90
13464;DHT22;6804;48.774;9.174;2024-03-08T09:00:58;4.90;99.90
13464;DHT22;6804;48.774;9.174;2024-03-08T09:03:32;5.00;99.90
13464;DHT22;6804;48.774;9.174;2024-03-08T09:06:03;5.10;99.90
13464;DHT22;6804;48.774;9.174;2024-03-08T09:08:31;5.30;99.90
13464;DHT22;6804;48.774;9.174;2024-03-08T09:11:00;5.30;99.90
13464;DHT22;6804;48.774;9.174;2024-03-08T09:13:30;5.10;99.90
13464;DHT22;6804;48.774;9.174;2024-03-08T09:16:02;5.00;99.90
13464;DHT22;6804;48.774;9.174;2024-03-08T09:18:32;4.80;99.90
13464;DHT22;6804;48.774;9.174;2024-03-08T09:20:59;4.80;99.90
13464;DHT22;6804;48.774;9.174;2024-03-08T09:23:32;5.00;99.90
13464;DHT22;6804;48.774;9.174;2024-03-08T09:26:02;5.10;99.90
13464;DHT22;6804;48.774;9.174;2024-03-08T09:28:31;5.20;99.90
13464;DHT22;6804;48.774;9.174;2024-03-08T09:30:59;5.10;99.90
13464;DHT22;6804;48.774;9.174;2024-03-08T09:33:28;5.00;99.90
13464;DHT22;6804;48.774;9.174;2024-03-08T09:35:58;4.80;99.90
13464;DHT22;6804;48.774;9.174;2024-03-08T09:38:26;4.90;99.90
13464;DHT22;6804;48.774;9.174;2024-03-08T09:40:55;5.00;99.90
13464;DHT22;6804;48.774;9.174;2024-03-08T09:43:32;5.10;99.90
13464;DHT22;6804;48.774;9.174;2024-03-08T09:46:03;5.00;99.90
13464;DHT22;6804;48.774;9.174;2024-03-08T09:48:32;5.00;99.90
13464;DHT22;6804;48.774;9.174;2024-03-08T09:51:01;5.10;99.90
13464;DHT22;6804;48.774;9.174;2024-03-08T09:53:29;5.30;99.90
13464;DHT22;6804;48.774;9.174;2024-03-08T09:56:01;5.30;99.90
13464;DHT22;6804;48.774;9.174;2024-03-08T09:58:30;5.20;99.90
13464;DHT22;6804;48.774;9.174;2024-03-08T10:01:20;5.10;99.90
13464;DHT22;6804;48.774;9.174;2024-03-08T10:03:50;5.10;99.90
13464;DHT22;6804;48.774;9.174;2024-03-08T10:06:23;5.10;99.90
13464;DHT22;6804;48.774;9.174;2024-03-08T10:08:52;5.10;99.90
13464;DHT22;6804;48.774;9.174;2024-03-08T10:11:22;5.30;99.90
13464;DHT22;6804;48.774;9.174;2024-03-08T10:13:51;5.30;99.90
13464;DHT22;6804;48.774;9.174;2024-03-08T10:16:25;5.20;99.90
13464;DHT22;6804;48.774;9.174;2024-03-08T10:18:55;5.40;99.90
13464;DHT22;6804;48.774;9.174;2024-03-08T10:21:23;5.60;99.90
13464;DHT22;6804;48.774;9.174;2024-03-08T10:23:54;5.70;99.90
13464;DHT22;6804;48.774;9.174;2024-03-08T10:26:24;5.60;99.90
13464;DHT22;6804;48.774;9.174;2024-03-08T10:28:53;5.50;99.90
13464;DHT22;6804;48.774;9.174;2024-03-08T10:31:23;5.40;99.90
13464;DHT22;6804;48.774;9.174;2024-03-08T10:33:55;5.50;99.90
13464;DHT22;6804;48.774;9.174;2024-03-08T10:36:24;5.40;99.90
13464;DHT22;6804;48.774;9.174;2024-03-08T10:38:55;5.40;99.90
13464;DHT22;6804;48.774;9.174;2024-03-08T10:41:24;5.60;99.90
13464;DHT22;6804;48.774;9.174;2024-03-08T10:44:15;5.70;99.90
13464;DHT22;6804;48.774;9.174;2024-03-08T10:47:00;5.80;99.90
13464;DHT22;6804;48.774;9.174;2024-03-08T10:49:50;5.90;99.90
13464;DHT22;6804;48.774;9.174;2024-03-08T10:52:22;6.00;99.90
13464;DHT22;6804;48.774;9.174;2024-03-08T10:54:53;6.20;99.90
13464;DHT22;6804;48.774;9.174;2024-03-08T10:57:24;6.30;99.90
13464;DHT22;6804;48.774;9.174;2024-03-08T10:59:55;6.40;99.90
13464;DHT22;6804;48.774;9.174;2024-03-08T11:02:26;6.20;99.90
13464;DHT22;6804;48.774;9.174;2024-03-08T11:05:00;6.20;99.90
13464;DHT22;6804;48.774;9.174;2024-03-08T11:07:34;6.20;99.90
13464;DHT22;6804;48.774;9.174;2024-03-08T11:10:03;6.10;99.90
13464;DHT22;6804;48.774;9.174;2024-03-08T11:12:37;6.20;99.90
13464;DHT22;6804;48.774;9.174;2024-03-08T11:15:13;5.80;99.90
13464;DHT22;6804;48.774;9.174;2024-03-08T11:17:50;5.90;99.90
13464;DHT22;6804;48.774;9.174;2024-03-08T11:20:25;5.90;99.90
13464;DHT22;6804;48.774;9.174;2024-03-08T11:22:59;5.80;99.90
13464;DHT22;6804;48.774;9.174;2024-03-08T11:25:36;5.90;99.90
13464;DHT22;6804;48.774;9.174;2024-03-08T11:28:17;6.10;99.90
13464;DHT22;6804;48.774;9.174;2024-03-08T11:30:46;6.00;99.90
13464;DHT22;6804;48.774;9.174;2024-03-08T11:33:16;6.00;99.90
13464;DHT22;6804;48.774;9.174;2024-03-08T11:35:45;6.20;99.90
13464;DHT22;6804;48.774;9.174;2024-03-08T11:38:13;6.30;99.90
13464;DHT22;6804;48.774;9.174;2024-03-08T11:40:42;6.60;99.90
13464;DHT22;6804;48.774;9.174;2024-03-08T11:43:16;6.70;99.90
13464;DHT22;6804;48.774;9.174;2024-03-08T11:45:45;6.70;99.90
13464;DHT22;6804;48.774;9.174;2024-03-08T11:48:15;6.80;99.90
13464;DHT22;6804;48.774;9.174;2024-03-08T11:50:45;6.90;99.90
13464;DHT22;6804;48.774;9.174;2024-03-08T11:53:15;7.00;99.90
13464;DHT22;6804;48.774;9.174;2024-03-08T11:55:46;7.20;99.90
13464;DHT22;6804;48.774;9.174;2024-03-08T11:58:15;7.10;99.90
13464;DHT22;6804;48.774;9.174;2024-03-08T12:00:44;6.90;99.90
13464;DHT22;6804;48.774;9.174;2024-03-08T12:03:15;6.70;99.90
13464;DHT22;6804;48.774;9.174;2024-03-08T12:05:44;6.70;99.90
13464;DHT22;6804;48.774;9.174;2024-03-08T12:08:14;7.00;99.90
13464;DHT22;6804;48.774;9.174;2024-03-08T12:10:44;7.20;99.90
13464;DHT22;6804;48.774;9.174;2024-03-08T12:13:14;7.30;99.90
13464;DHT22;6804;48.774;9.174;2024-03-08T12:15:49;7.40;99.90
13464;DHT22;6804;48.774;9.174;2024-03-08T12:18:28;7.50;99.90
13464;DHT22;6804;48.774;9.174;2024-03-08T12:21:05;7.40;99.90
13464;DHT22;6804;48.774;9.174;2024-03-08T12:23:34;7.20;99.90
13464;DHT22;6804;48.774;9.174;2024-03-08T12:26:14;7.30;99.90
13464;DHT22;6804;48.774;9.174;2024-03-08T12:29:21;7.40;99.90
13464;DHT22;6804;48.774;9.174;2024-03-08T12:31:55;7.50;99.90
13464;DHT22;6804;48.774;9.174;2024-03-08T12:34:27;7.80;99.90
13464;DHT22;6804;48.774;9.174;2024-03-08T12:36:58;8.10;99.90
13464;DHT22;6804;48.774;9.174;2024-03-08T12:39:26;8.10;99.90
13464;DHT22;6804;48.774;9.174;2024-03-08T12:41:57;8.10;99.90
13464;DHT22;6804;48.774;9.174;2024-03-08T12:44:26;7.80;99.90
13464;DHT22;6804;48.774;9.174;2024-03-08T12:46:55;7.80;99.90
13464;DHT22;6804;48.774;9.174;2024-03-08T12:49:26;8.10;99.90
13464;DHT22;6804;48.774;9.174;2024-03-08T12:51:55;8.00;99.90
13464;DHT22;6804;48.774;9.174;2024-03-08T12:54:23;8.10;99.90
13464;DHT22;6804;48.774;9.174;2024-03-08T12:56:56;8.20;99.90
13464;DHT22;6804;48.774;9.174;2024-03-08T12:59:27;8.50;99.90
13464;DHT22;6804;48.774;9.174;2024-03-08T13:01:58;8.70;99.90
13464;DHT22;6804;48.774;9.174;2024-03-08T13:04:28;8.90;99.90
13464;DHT22;6804;48.774;9.174;2024-03-08T13:06:58;9.30;99.90
13464;DHT22;6804;48.774;9.174;2024-03-08T13:09:28;9.60;99.90
13464;DHT22;6804;48.774;9.174;2024-03-08T13:11:57;9.60;99.90
13464;DHT22;6804;48.774;9.174;2024-03-08T13:14:27;9.70;99.90
13464;DHT22;6804;48.774;9.174;2024-03-08T13:16:58;9.50;99.90
13464;DHT22;6804;48.774;9.174;2024-03-08T13:19:27;9.70;99.90
13464;DHT22;6804;48.774;9.174;2024-03-08T13:21:56;10.00;99.90
13464;DHT22;6804;48.774;9.174;2024-03-08T13:24:24;9.80;99.90
13464;DHT22;6804;48.774;9.174;2024-03-08T13:27:11;10.10;99.90
13464;DHT22;6804;48.774;9.174;2024-03-08T13:29:48;10.30;99.90
13464;DHT22;6804;48.774;9.174;2024-03-08T13:32:19;10.00;99.90
13464;DHT22;6804;48.774;9.174;2024-03-08T13:34:50;9.80;99.90
13464;DHT22;6804;48.774;9.174;2024-03-08T13:37:18;9.60;99.90
13464;DHT22;6804;48.774;9.174;2024-03-08T13:39:49;9.10;99.90
13464;DHT22;6804;48.774;9.174;2024-03-08T13:42:17;9.10;99.90
13464;DHT22;6804;48.774;9.174;2024-03-08T13:44:46;9.10;99.90
13464;DHT22;6804;48.774;9.174;2024-03-08T13:47:16;9.10;99.90
13464;DHT22;6804;48.774;9.174;2024-03-08T13:49:48;9.10;99.90
13464;DHT22;6804;48.774;9.174;2024-03-08T13:52:36;9.30;99.90
13464;DHT22;6804;48.774;9.174;2024-03-08T13:55:08;9.60;99.90
13464;DHT22;6804;48.774;9.174;2024-03-08T13:57:39;10.00;99.90
13464;DHT22;6804;48.774;9.174;2024-03-08T14:00:08;9.80;99.90
13464;DHT22;6804;48.774;9.174;2024-03-08T14:02:37;9.90;99.90
13464;DHT22;6804;48.774;9.174;2024-03-08T14:05:07;10.00;99.90
13464;DHT22;6804;48.774;9.174;2024-03-08T14:07:40;10.20;99.90
13464;DHT22;6804;48.774;9.174;2024-03-08T14:10:09;10.00;99.90
13464;DHT22;6804;48.774;9.174;2024-03-08T14:12:38;10.00;99.90
13464;DHT22;6804;48.774;9.174;2024-03-08T14:15:09;10.10;99.90
13464;DHT22;6804;48.774;9.174;2024-03-08T14:17:38;10.30;99.90
13464;DHT22;6804;48.774;9.174;2024-03-08T14:20:07;10.40;99.90
13464;DHT22;6804;48.774;9.174;2024-03-08T14:22:37;10.40;99.90
13464;DHT22;6804;48.774;9.174;2024-03-08T14:25:10;10.50;99.90
13464;DHT22;6804;48.774;9.174;2024-03-08T14:27:43;10.60;99.90
13464;DHT22;6804;48.774;9.174;2024-03-08T14:30:13;10.50;99.90
13464;DHT22;6804;48.774;9.174;2024-03-08T14:32:59;10.30;99.90
13464;DHT22;6804;48.774;9.174;2024-03-08T14:35:27;10.50;99.90
13464;DHT22;6804;48.774;9.174;2024-03-08T14:38:01;10.80;99.90
13464;DHT22;6804;48.774;9.174;2024-03-08T14:40:30;11.00;99.90
13464;DHT22;6804;48.774;9.174;2024-03-08T14:43:00;11.20;99.90
13464;DHT22;6804;48.774;9.174;2024-03-08T14:45:28;11.10;99.90
13464;DHT22;6804;48.774;9.174;2024-03-08T14:47:59;11.10;99.90
13464;DHT22;6804;48.774;9.174;2024-03-08T14:50:28;10.90;99.90
13464;DHT22;6804;48.774;9.174;2024-03-08T14:53:00;10.80;99.90
13464;DHT22;6804;48.774;9.174;2024-03-08T14:55:33;10.90;99.90
13464;DHT22;6804;48.774;9.174;2024-03-08T14:58:02;10.70;99.90
13464;DHT22;6804;48.774;9.174;2024-03-08T15:00:32;10.70;99.90
13464;DHT22;6804;48.774;9.174;2024-03-08T15:03:00;10.80;99.90
13464;DHT22;6804;48.774;9.174;2024-03-08T15:05:30;10.80;99.90
13464;DHT22;6804;48.774;9.174;2024-03-08T15:08:02;10.80;99.90
13464;DHT22;6804;48.774;9.174;2024-03-08T15:10:39;11.00;99.90
13464;DHT22;6804;48.774;9.174;2024-03-08T15:13:08;11.20;99.90
13464;DHT22;6804;48.774;9.174;2024-03-08T15:15:42;11.20;99.90
13464;DHT22;6804;48.774;9.174;2024-03-08T15:18:11;11.00;99.90
13464;DHT22;6804;48.774;9.174;2024-03-08T15:20:40;11.10;99.90
13464;DHT22;6804;48.774;9.174;2024-03-08T15:23:10;11.10;99.90
13464;DHT22;6804;48.774;9.174;2024-03-08T15:25:58;10.80;99.90
13464;DHT22;6804;48.774;9.174;2024-03-08T15:28:30;10.60;99.90
13464;DHT22;6804;48.774;9.174;2024-03-08T15:31:03;10.70;99.90
13464;DHT22;6804;48.774;9.174;2024-03-08T15:33:40;10.80;99.90
13464;DHT22;6804;48.774;9.174;2024-03-08T15:36:11;10.80;99.90
13464;DHT22;6804;48.774;9.174;2024-03-08T15:39:00;10.90;99.90
13464;DHT22;6804;48.774;9.174;2024-03-08T15:41:30;11.00;99.90
13464;DHT22;6804;48.774;9.174;2024-03-08T15:43:58;10.90;99.90
13464;DHT22;6804;48.774;9.174;2024-03-08T15:46:26;10.90;99.90
13464;DHT22;6804;48.774;9.174;2024-03-08T15:48:53;10.80;99.90
13464;DHT22;6804;48.774;9.174;2024-03-08T15:51:21;10.80;99.90
13464;DHT22;6804;48.774;9.174;2024-03-08T15:53:53;10.80;99.90
13464;DHT22;6804;48.774;9.174;2024-03-08T15:56:22;10.80;99.90
13464;DHT22;6804;48.774;9.174;2024-03-08T15:58:54;10.80;99.90
13464;DHT22;6804;48.774;9.174;2024-03-08T16:01:23;10.80;99.90
13464;DHT22;6804;48.774;9.174;2024-03-08T16:03:52;10.80;99.90
13464;DHT22;6804;48.774;9.174;2024-03-08T16:06:21;10.70;99.90
13464;DHT22;6804;48.774;9.174;2024-03-08T16:08:51;10.70;99.90
13464;DHT22;6804;48.774;9.174;2024-03-08T16:11:20;10.80;99.90
13464;DHT22;6804;48.774;9.174;2024-03-08T16:13:53;10.80;99.90
13464;DHT22;6804;48.774;9.174;2024-03-08T16:16:23;10.90;99.90
13464;DHT22;6804;48.774;9.174;2024-03-08T16:18:54;10.90;99.90
13464;DHT22;6804;48.774;9.174;2024-03-08T16:21:22;10.90;99.90
13464;DHT22;6804;48.774;9.174;2024-03-08T16:23:54;10.80;99.90
13464;DHT22;6804;48.774;9.174;2024-03-08T16:26:22;10.80;99.90